Details for Wideroe at ENTC




Go Back


Latest METAR
Local Time

ENTC 221750Z 25016KT 9999 VCSH FEW018 SCT024 BKN045 06/01 Q1021 NOSIG RMK WIND 2600FT 26029G40KT

22/05/2018, 19:55:33

Description
Results
Wideroe Logo
Number of Pilots based at ENTC
0 Pilots Based here
Number of Wideroe Flights Departed from ENTC
1 Flights Departed
Number of Wideroe Flights Arrived at ENTC
1 Flights Arrived
Number of Wideroe Schedules Departing from ENTC
44 Schedules
Number of Wideroe Schedules Arriving at ENTC
40 Schedules
Number of Wideroe Schedules Departing from ENTC availible today
34 Schedules Today
Number of Wideroe Schedules Arriving at ENTC availible today
32 Schedules Today
Average Landing Rate at ENTC
-257 fpm
Wideroe Average Landing Rate at ENTC
-82 fpm
Total Fuel Purchased at ENTC by Wideroe
2,267.96 kgs / 4,999.94 lbs

Pilots Based at ENTC


Pilot ID
Pilot Name
Pilot Rank
No. of Flights
No. of Flying Hours
There are no pilots assigned to this hub!   Will you be the first?
Content